Terminal Aerodrome Forecast
Issued by NWS

Home | Current Version | Previous Version | Text Only | Print | Product List | Glossary On
Versions: 1 2 3 4 5 6 7 8 9 10 11 12 13 14
000
FTUS45 KABQ 251732
TAFAEG
TAF
KAEG 251732Z 2518/2618 25007KT P6SM SCT050
     FM251900 28012G20KT P6SM VCSH BKN060
      TEMPO 2520/2523 VRB20G30KT -TSRA BKN050CB
     FM260100 29009KT P6SM VCSH BKN060
     FM260400 27005KT P6SM FEW060=

USA.gov is the U.S. government's official web portal to all federal, state and local government web resources and services.